createdAt,value
2022-11-12T00:01:19.014Z,20.30
2022-11-12T00:04:10.353Z,19.75
2022-11-12T00:07:01.988Z,20.92
2022-11-12T00:09:53.410Z,20.15
2022-11-12T00:12:46.387Z,21.08
2022-11-12T00:15:38.231Z,20.90
2022-11-12T00:18:29.634Z,21.33
2022-11-12T00:21:21.210Z,20.48
2022-11-12T00:24:12.631Z,19.75
2022-11-12T00:27:04.001Z,22.35
2022-11-12T00:29:56.501Z,19.63
2022-11-12T00:32:47.576Z,21.93
2022-11-12T00:35:38.897Z,19.33
2022-11-12T00:38:32.060Z,20.00
2022-11-12T00:44:15.358Z,22.33
2022-11-12T00:47:11.126Z,18.77
2022-11-12T00:50:02.604Z,21.10
2022-11-12T00:52:54.922Z,21.63
2022-11-12T00:55:46.381Z,22.40
2022-11-12T00:58:37.643Z,27.13
2022-11-12T01:01:29.110Z,22.55
2022-11-12T01:04:22.186Z,23.30
2022-11-12T01:07:15.935Z,24.55
2022-11-12T01:10:08.099Z,22.88
2022-11-12T01:12:59.286Z,24.48
2022-11-12T01:15:50.629Z,22.80
2022-11-12T01:18:43.352Z,25.73
2022-11-12T01:21:39.536Z,24.23
2022-11-12T01:24:30.955Z,22.48
2022-11-12T01:27:22.610Z,22.15
2022-11-12T01:30:14.228Z,23.70
2022-11-12T01:33:05.529Z,23.00
2022-11-12T01:35:59.804Z,24.00
2022-11-12T01:38:53.442Z,23.52
2022-11-12T01:41:46.754Z,22.42
2022-11-12T01:44:40.742Z,23.67
2022-11-12T01:47:36.733Z,25.25
2022-11-12T01:50:32.388Z,23.27
2022-11-12T01:53:27.129Z,24.77
2022-11-12T01:56:22.079Z,25.63
2022-11-12T01:59:18.238Z,26.75
2022-11-12T02:02:10.848Z,29.58
2022-11-12T02:05:03.944Z,28.58
2022-11-12T02:07:58.324Z,26.98
2022-11-12T02:10:49.706Z,25.73
2022-11-12T02:14:03.011Z,22.88
2022-11-12T02:16:54.937Z,26.40
2022-11-12T02:19:48.078Z,26.95
2022-11-12T02:22:43.877Z,28.70
2022-11-12T02:25:36.273Z,26.02
2022-11-12T02:28:29.589Z,26.48
2022-11-12T02:31:21.159Z,25.40
2022-11-12T02:34:12.895Z,31.48
2022-11-12T02:37:04.379Z,30.95
2022-11-12T02:39:57.037Z,30.98
2022-11-12T02:42:48.591Z,29.00
2022-11-12T02:45:39.869Z,27.83
2022-11-12T02:48:31.457Z,27.60
2022-11-12T02:51:23.591Z,28.27
2022-11-12T02:54:15.018Z,30.83
2022-11-12T02:57:07.702Z,29.40
2022-11-12T02:59:58.975Z,28.67
2022-11-12T03:02:59.305Z,31.55
2022-11-12T03:05:57.595Z,29.95
2022-11-12T03:08:48.763Z,29.77
2022-11-12T03:11:43.420Z,32.60
2022-11-12T03:14:36.461Z,27.92
2022-11-12T03:17:27.546Z,33.40
2022-11-12T03:20:19.680Z,29.77
2022-11-12T03:23:12.545Z,29.92
2022-11-12T03:26:05.581Z,32.92
2022-11-12T03:28:57.095Z,37.83
2022-11-12T03:31:49.839Z,32.35
2022-11-12T03:34:41.065Z,32.92
2022-11-12T03:37:32.152Z,32.00
2022-11-12T03:40:25.935Z,30.77
2022-11-12T03:43:17.250Z,32.55
2022-11-12T03:46:08.750Z,32.80
2022-11-12T03:49:02.703Z,30.23
2022-11-12T03:51:54.198Z,30.67
2022-11-12T03:54:45.789Z,28.85
2022-11-12T03:57:37.199Z,31.25
2022-11-12T04:00:30.082Z,30.63
2022-11-12T04:03:21.203Z,27.55
2022-11-12T04:06:31.959Z,27.08
2022-11-12T04:09:23.327Z,29.73
2022-11-12T04:12:28.287Z,28.23
2022-11-12T04:15:19.438Z,28.70
2022-11-12T04:18:28.861Z,27.52
2022-11-12T04:21:39.728Z,27.77
2022-11-12T04:24:51.311Z,26.13
2022-11-12T04:27:42.879Z,26.85
2022-11-12T04:30:33.201Z,23.75
2022-11-12T04:33:27.100Z,23.75
2022-11-12T04:36:18.853Z,26.77
2022-11-12T04:39:13.768Z,23.95
2022-11-12T04:42:26.976Z,23.50
2022-11-12T04:45:18.384Z,22.60
2022-11-12T04:48:10.109Z,21.60
2022-11-12T04:51:03.625Z,21.90
2022-11-12T04:53:55.352Z,22.48
2022-11-12T04:56:48.371Z,20.90
2022-11-12T04:59:41.549Z,22.80
2022-11-12T05:05:24.230Z,23.13
2022-11-12T05:08:15.750Z,20.65
2022-11-12T05:11:12.501Z,17.38
2022-11-12T05:14:05.740Z,17.20
2022-11-12T05:16:57.026Z,18.77
2022-11-12T05:19:48.621Z,16.58
2022-11-12T05:22:47.883Z,18.23
2022-11-12T05:25:46.158Z,18.25
2022-11-12T05:28:37.830Z,17.95
2022-11-12T05:31:33.271Z,18.02
2022-11-12T05:34:25.626Z,18.33
2022-11-12T05:37:17.529Z,18.17
2022-11-12T05:40:10.321Z,17.52
2022-11-12T05:43:02.087Z,15.85
2022-11-12T05:45:53.537Z,16.75
2022-11-12T05:48:46.263Z,15.82
2022-11-12T05:51:38.959Z,18.35
2022-11-12T05:54:30.479Z,17.98
2022-11-12T05:57:21.732Z,15.73
2022-11-12T06:00:17.111Z,16.40
2022-11-12T06:03:09.581Z,15.27
2022-11-12T06:06:02.616Z,14.48
2022-11-12T06:08:54.019Z,15.35
2022-11-12T06:11:45.383Z,14.45
2022-11-12T06:14:37.246Z,15.75
2022-11-12T06:17:28.701Z,15.55
2022-11-12T06:20:20.189Z,14.88
2022-11-12T06:23:12.771Z,15.77
2022-11-12T06:26:04.612Z,13.45
2022-11-12T06:28:56.623Z,14.95
2022-11-12T06:31:48.041Z,12.75
2022-11-12T06:34:39.253Z,13.95
2022-11-12T06:37:30.435Z,13.27
2022-11-12T06:40:23.273Z,14.30
2022-11-12T06:43:14.711Z,13.75
2022-11-12T06:46:08.108Z,15.10
2022-11-12T06:48:59.493Z,13.73
2022-11-12T06:51:52.258Z,13.40
2022-11-12T06:54:43.570Z,13.15
2022-11-12T06:57:36.646Z,14.95
2022-11-12T07:03:19.577Z,14.35
2022-11-12T07:06:12.791Z,14.63
2022-11-12T07:09:04.341Z,15.80
2022-11-12T07:11:55.745Z,13.73
2022-11-12T07:14:48.440Z,15.13
2022-11-12T07:17:39.482Z,12.60
2022-11-12T07:20:30.567Z,14.80
2022-11-12T07:23:21.789Z,14.60
2022-11-12T07:26:15.146Z,13.77
2022-11-12T07:29:07.227Z,11.65
2022-11-12T07:32:00.037Z,12.77
2022-11-12T07:34:51.454Z,12.35
2022-11-12T07:37:43.178Z,12.75
2022-11-12T07:40:34.917Z,12.18
2022-11-12T07:43:26.365Z,11.98
2022-11-12T07:46:22.592Z,12.25
2022-11-12T07:49:15.654Z,14.25
2022-11-12T07:52:06.867Z,13.82
2022-11-12T07:54:58.072Z,13.48
2022-11-12T07:57:49.285Z,11.82
2022-11-12T08:00:40.595Z,13.65
2022-11-12T08:03:31.828Z,14.52
2022-11-12T08:06:24.915Z,12.60
2022-11-12T08:09:16.614Z,12.90
2022-11-12T08:12:08.476Z,12.60
2022-11-12T08:15:00.679Z,12.93
2022-11-12T08:17:52.090Z,14.40
2022-11-12T08:20:43.739Z,12.70
2022-11-12T08:23:36.486Z,13.52
2022-11-12T08:26:27.750Z,11.10
2022-11-12T08:29:19.138Z,12.32
2022-11-12T08:32:10.888Z,11.63
2022-11-12T08:35:02.563Z,11.02
2022-11-12T08:37:58.351Z,12.05
2022-11-12T08:40:50.759Z,12.95
2022-11-12T08:43:43.215Z,10.88
2022-11-12T08:46:34.600Z,13.30
2022-11-12T08:49:26.308Z,13.75
2022-11-12T08:52:17.801Z,11.88
2022-11-12T08:55:10.298Z,10.25
2022-11-12T08:58:03.830Z,12.07
2022-11-12T09:03:46.819Z,11.27
2022-11-12T09:06:38.084Z,12.90
2022-11-12T09:09:29.609Z,12.80
2022-11-12T09:12:21.530Z,12.52
2022-11-12T09:18:26.032Z,11.27
2022-11-12T09:21:19.294Z,13.80
2022-11-12T09:24:10.795Z,12.27
2022-11-12T09:27:02.099Z,13.57
2022-11-12T09:29:53.648Z,12.32
2022-11-12T09:32:46.435Z,13.25
2022-11-12T09:35:37.685Z,12.10
2022-11-12T09:38:29.417Z,11.63
2022-11-12T09:41:26.724Z,14.20
2022-11-12T09:44:20.357Z,12.70
2022-11-12T09:47:20.348Z,14.32
2022-11-12T09:50:21.427Z,14.57
2022-11-12T09:53:18.588Z,11.82
2022-11-12T09:56:13.958Z,14.20
2022-11-12T09:59:13.411Z,15.75
2022-11-12T10:02:23.329Z,15.07
2022-11-12T10:05:28.103Z,19.67
2022-11-12T10:08:35.627Z,15.75
2022-11-12T10:12:04.204Z,20.30
2022-11-12T10:15:34.670Z,20.75
2022-11-12T10:18:37.371Z,16.23
2022-11-12T10:21:37.103Z,16.75
2022-11-12T10:24:35.272Z,24.23
2022-11-12T10:27:35.937Z,21.58
2022-11-12T10:30:27.567Z,20.73
2022-11-12T10:33:18.871Z,15.25
2022-11-12T10:36:22.719Z,17.65
2022-11-12T10:39:33.295Z,17.33
2022-11-12T10:42:24.934Z,19.17
2022-11-12T10:45:21.824Z,16.83
2022-11-12T10:48:27.007Z,15.95
2022-11-12T10:51:39.773Z,14.52
2022-11-12T10:54:38.383Z,15.70
2022-11-12T10:57:30.172Z,18.60
2022-11-12T11:00:22.764Z,17.02
2022-11-12T11:03:21.794Z,21.05
2022-11-12T11:06:23.131Z,14.43
2022-11-12T11:09:20.590Z,16.92
2022-11-12T11:12:24.655Z,12.60
2022-11-12T11:15:21.277Z,11.65
2022-11-12T11:18:14.396Z,13.68
2022-11-12T11:21:24.723Z,13.38
2022-11-12T11:24:28.005Z,12.90
2022-11-12T11:27:30.438Z,13.60
2022-11-12T11:30:23.025Z,12.07
2022-11-12T11:33:32.006Z,10.57
2022-11-12T11:36:30.087Z,12.80
2022-11-12T11:39:30.962Z,10.52
2022-11-12T11:42:42.807Z,11.00
2022-11-12T11:45:49.936Z,10.75
2022-11-12T11:48:54.689Z,11.93
2022-11-12T11:51:53.426Z,8.60
2022-11-12T11:55:01.354Z,9.60
2022-11-12T11:58:03.475Z,8.07
2022-11-12T12:01:06.067Z,8.57
2022-11-12T12:04:21.147Z,8.98
2022-11-12T12:07:25.995Z,7.28
2022-11-12T12:10:34.742Z,7.35
2022-11-12T12:13:47.166Z,7.50
2022-11-12T12:16:48.793Z,5.43
2022-11-12T12:19:52.598Z,5.15
2022-11-12T12:22:50.301Z,5.53
2022-11-12T12:25:44.353Z,6.18
2022-11-12T12:28:42.527Z,6.53
2022-11-12T12:31:41.083Z,5.22
2022-11-12T12:34:34.150Z,4.97
2022-11-12T12:37:36.623Z,8.80
2022-11-12T12:40:35.951Z,5.93
2022-11-12T12:43:33.819Z,4.25
2022-11-12T12:46:29.988Z,6.13
2022-11-12T12:49:29.455Z,7.03
2022-11-12T12:52:20.924Z,6.40
2022-11-12T12:55:36.355Z,6.15
2022-11-12T12:58:29.879Z,9.55
2022-11-12T13:01:33.239Z,6.93
2022-11-12T13:04:54.834Z,7.88
2022-11-12T13:07:49.127Z,10.30
2022-11-12T13:10:52.105Z,6.70
2022-11-12T13:13:43.788Z,6.25
2022-11-12T13:17:01.769Z,9.70
2022-11-12T13:20:18.567Z,6.03
2022-11-12T13:23:13.358Z,7.22
2022-11-12T13:26:44.022Z,7.28
2022-11-12T13:29:43.726Z,6.03
2022-11-12T13:32:42.893Z,3.97
2022-11-12T13:35:36.262Z,10.27
2022-11-12T13:41:43.323Z,5.43
2022-11-12T13:44:36.369Z,6.68
2022-11-12T13:47:29.297Z,4.65
2022-11-12T13:50:24.391Z,5.63
2022-11-12T13:53:21.886Z,6.00
2022-11-12T13:56:29.173Z,5.18
2022-11-12T13:59:22.909Z,3.78
2022-11-12T14:02:23.739Z,5.53
2022-11-12T14:05:17.545Z,5.43
2022-11-12T14:08:23.834Z,5.35
2022-11-12T14:11:51.250Z,4.78
2022-11-12T14:15:01.135Z,5.60
2022-11-12T14:18:03.177Z,4.90
2022-11-12T14:20:54.652Z,5.03
2022-11-12T14:23:49.596Z,4.93
2022-11-12T14:26:42.490Z,7.53
2022-11-12T14:29:36.915Z,5.72
2022-11-12T14:32:36.931Z,7.20
2022-11-12T14:35:34.607Z,6.35
2022-11-12T14:38:30.346Z,6.22
2022-11-12T14:41:26.480Z,5.60
2022-11-12T14:44:22.508Z,7.65
2022-11-12T14:47:13.683Z,5.65
2022-11-12T14:50:06.219Z,7.57
2022-11-12T14:53:03.586Z,9.88
2022-11-12T14:55:57.065Z,7.22
2022-11-12T14:58:50.609Z,6.70
2022-11-12T15:05:17.940Z,7.03
2022-11-12T15:08:12.844Z,6.97
2022-11-12T15:11:22.256Z,7.15
2022-11-12T15:14:22.554Z,8.63
2022-11-12T15:17:29.818Z,7.25
2022-11-12T15:20:22.670Z,7.82
2022-11-12T15:23:18.833Z,8.55
2022-11-12T15:26:16.424Z,8.95
2022-11-12T15:29:16.597Z,7.47
2022-11-12T15:32:32.203Z,7.55
2022-11-12T15:35:36.887Z,10.35
2022-11-12T15:38:32.608Z,6.85
2022-11-12T15:41:26.139Z,9.50
2022-11-12T15:44:19.760Z,10.88
2022-11-12T15:47:21.688Z,8.45
2022-11-12T15:50:17.203Z,8.82
2022-11-12T15:53:10.278Z,8.82
2022-11-12T15:56:03.278Z,9.68
2022-11-12T15:58:54.799Z,11.57
2022-11-12T16:01:46.688Z,9.32
2022-11-12T16:04:38.008Z,8.88
2022-11-12T16:07:29.190Z,6.85
2022-11-12T16:10:21.759Z,6.68
2022-11-12T16:13:16.551Z,7.07
2022-11-12T16:16:08.617Z,7.82
2022-11-12T16:19:00.044Z,7.97
2022-11-12T16:21:51.264Z,7.55
2022-11-12T16:24:43.666Z,9.60
2022-11-12T16:27:39.366Z,6.97
2022-11-12T16:30:35.900Z,6.10
2022-11-12T16:33:27.505Z,7.43
2022-11-12T16:36:19.209Z,7.38
2022-11-12T16:39:12.748Z,9.80
2022-11-12T16:42:04.579Z,8.27
2022-11-12T16:45:00.492Z,9.60
2022-11-12T16:47:54.400Z,9.52
2022-11-12T16:50:46.043Z,9.07
2022-11-12T16:53:37.491Z,7.78
2022-11-12T16:56:28.695Z,7.03
2022-11-12T16:59:22.744Z,7.32
2022-11-12T17:02:16.945Z,7.57
2022-11-12T17:05:13.178Z,9.23
2022-11-12T17:08:04.557Z,12.80
2022-11-12T17:10:56.792Z,10.35
2022-11-12T17:13:48.162Z,10.07
2022-11-12T17:16:40.013Z,8.68
2022-11-12T17:19:32.681Z,9.30
2022-11-12T17:22:24.319Z,8.82
2022-11-12T17:25:15.732Z,9.68
2022-11-12T17:28:07.156Z,10.15
2022-11-12T17:31:10.603Z,11.25
2022-11-12T17:34:01.665Z,9.93
2022-11-12T17:36:54.776Z,11.52
2022-11-12T17:39:46.479Z,11.05
2022-11-12T17:42:37.671Z,8.80
2022-11-12T17:45:30.055Z,8.02
2022-11-12T17:48:22.353Z,7.45
2022-11-12T17:51:15.779Z,6.93
2022-11-12T17:54:15.214Z,8.18
2022-11-12T17:57:06.609Z,8.00
2022-11-12T17:59:57.833Z,8.40
2022-11-12T18:02:49.140Z,8.25
2022-11-12T18:05:40.726Z,7.18
2022-11-12T18:08:32.338Z,8.38
2022-11-12T18:11:27.075Z,7.75
2022-11-12T18:14:19.046Z,7.25
2022-11-12T18:17:10.453Z,7.28
2022-11-12T18:20:01.682Z,8.60
2022-11-12T18:22:52.776Z,8.10
2022-11-12T18:25:44.518Z,8.98
2022-11-12T18:28:37.516Z,8.25
2022-11-12T18:31:29.591Z,8.02
2022-11-12T18:34:20.653Z,8.65
2022-11-12T18:37:12.095Z,9.60
2022-11-12T18:40:03.709Z,8.30
2022-11-12T18:42:55.064Z,8.93
2022-11-12T18:45:57.750Z,7.90
2022-11-12T18:48:49.612Z,10.32
2022-11-12T18:51:44.240Z,7.30
2022-11-12T18:54:35.588Z,8.75
2022-11-12T18:57:26.920Z,7.63
2022-11-12T19:00:19.100Z,7.53
2022-11-12T19:03:11.810Z,9.20
2022-11-12T19:06:05.321Z,7.63
2022-11-12T19:09:02.755Z,8.13
2022-11-12T19:11:54.975Z,8.43
2022-11-12T19:14:46.229Z,6.90
2022-11-12T19:17:37.720Z,7.43
2022-11-12T19:20:31.239Z,6.50
2022-11-12T19:23:25.684Z,7.22
2022-11-12T19:26:19.049Z,9.10
2022-11-12T19:29:10.395Z,6.25
2022-11-12T19:32:02.041Z,8.38
2022-11-12T19:34:53.552Z,8.00
2022-11-12T19:37:47.960Z,11.10
2022-11-12T19:40:40.226Z,8.38
2022-11-12T19:43:32.026Z,11.02
2022-11-12T19:46:25.597Z,13.15
2022-11-12T19:49:19.843Z,11.60
2022-11-12T19:52:11.630Z,10.63
2022-11-12T19:55:05.303Z,10.95
2022-11-12T19:57:57.182Z,11.65
2022-11-12T20:00:51.449Z,11.43
2022-11-12T20:03:44.369Z,13.07
2022-11-12T20:06:38.551Z,12.63
2022-11-12T20:09:33.684Z,10.68
2022-11-12T20:12:27.280Z,13.93
2022-11-12T20:15:19.630Z,13.02
2022-11-12T20:18:14.183Z,13.13
2022-11-12T20:21:14.591Z,11.27
2022-11-12T20:24:10.100Z,14.80
2022-11-12T20:27:02.679Z,13.93
2022-11-12T20:29:55.403Z,13.18
2022-11-12T20:32:47.665Z,12.30
2022-11-12T20:35:39.405Z,18.85
2022-11-12T20:38:31.568Z,12.25
2022-11-12T20:41:27.006Z,12.93
2022-11-12T20:44:19.088Z,12.63
2022-11-12T20:47:11.847Z,16.73
2022-11-12T20:52:55.683Z,13.52
2022-11-12T20:55:48.537Z,16.05
2022-11-12T20:58:50.731Z,17.25
2022-11-12T21:01:49.123Z,15.77
2022-11-12T21:04:48.953Z,14.00
2022-11-12T21:07:42.781Z,16.48
2022-11-12T21:11:14.874Z,17.73
2022-11-12T21:14:06.834Z,15.77
2022-11-12T21:16:58.654Z,17.02
2022-11-12T21:19:53.254Z,14.75
2022-11-12T21:22:45.308Z,16.33
2022-11-12T21:25:37.309Z,16.83
2022-11-12T21:28:30.202Z,17.17
2022-11-12T21:31:24.511Z,15.70
2022-11-12T21:34:16.255Z,18.70
2022-11-12T21:37:09.114Z,17.13
2022-11-12T21:40:00.514Z,18.65
2022-11-12T21:42:52.356Z,19.90
2022-11-12T21:45:46.496Z,18.70
2022-11-12T21:48:38.082Z,19.58
2022-11-12T21:51:30.975Z,18.63
2022-11-12T21:54:24.092Z,16.48
2022-11-12T21:57:18.805Z,18.13
2022-11-12T22:00:40.922Z,18.13
2022-11-12T22:03:31.675Z,17.10
2022-11-12T22:06:25.402Z,18.85
2022-11-12T22:09:23.026Z,18.13
2022-11-12T22:12:19.192Z,17.67
2022-11-12T22:15:12.732Z,18.80
2022-11-12T22:18:04.497Z,15.95
2022-11-12T22:21:01.699Z,17.35
2022-11-12T22:23:53.841Z,17.63
2022-11-12T22:26:45.741Z,16.50
2022-11-12T22:29:38.713Z,15.10
2022-11-12T22:32:30.396Z,19.00
2022-11-12T22:35:22.617Z,17.88
2022-11-12T22:38:19.429Z,16.42
2022-11-12T22:41:16.064Z,18.40
2022-11-12T22:44:07.639Z,16.70
2022-11-12T22:47:00.448Z,18.08
2022-11-12T22:49:52.168Z,17.50
2022-11-12T22:52:49.861Z,17.15
2022-11-12T22:55:44.352Z,15.07
2022-11-12T22:58:44.714Z,19.60
2022-11-12T23:01:37.218Z,18.80
2022-11-12T23:04:33.327Z,17.10
2022-11-12T23:07:45.921Z,15.75
2022-11-12T23:10:42.949Z,18.08
2022-11-12T23:13:38.540Z,17.27
2022-11-12T23:16:31.800Z,18.83
2022-11-12T23:19:26.657Z,15.25
2022-11-12T23:22:20.172Z,17.80
2022-11-12T23:25:14.951Z,16.02
2022-11-12T23:28:20.370Z,17.23
2022-11-12T23:31:18.279Z,16.10
2022-11-12T23:34:18.195Z,17.90
2022-11-12T23:37:14.764Z,18.45
2022-11-12T23:40:24.300Z,21.90
2022-11-12T23:43:26.200Z,17.85
2022-11-12T23:46:18.065Z,22.52
2022-11-12T23:49:09.578Z,19.17
2022-11-12T23:52:02.811Z,19.95
2022-11-12T23:54:57.061Z,20.80
2022-11-12T23:57:51.546Z,16.15
